Latest Weather Observations for Gove Airport

IDD60801

Issued at 5:35 pm CST Tuesday 23 September 2014 (issued every 30 minutes, with the page automatically refreshed every 10 minutes)

About weather observations | Map of weather stations | Latest weather observations for NT | Other Formats
Station Details ID: 014508 Name: GOVE AIRPORT Lat: -12.27 Lon: 136.82 Height: 51.6 m
Data from the previous 72 hours. | See also: Recent months at Gove Airport
Date/Time
CST
Temp
°C
App
Temp
°C
Dew
Point
Rel
Hum
%
Delta-T
°C
Wind Press
QNH
hPa
Press
MSL
hPa
Rain
since 9 am
mm
Dir
 
Spd
km/h
Gust
km/h
Spd
kts
Gust
kts
23/05:30pm 26.4 27.7 20.8 71 3.7 NE 15 20 8 11 1012.0 - 0.0
23/05:00pm 27.8 28.4 20.2 63 5.0 NE 17 22 9 12 1011.9 - 0.0
23/04:30pm 28.4 28.8 19.1 57 6.0 NE 15 20 8 11 1011.9 - 0.0
23/04:00pm 28.6 29.0 19.9 59 5.7 ENE 17 22 9 12 1011.9 - 0.0
23/03:30pm 29.1 28.9 19.3 55 6.4 ENE 19 22 10 12 1012.0 - 0.0
23/03:00pm 29.9 29.1 18.0 48 7.6 NE 19 26 10 14 1012.1 1011.8 0.0
23/02:30pm 30.6 29.7 17.8 46 8.2 NE 19 30 10 16 1012.4 - 0.0
23/02:00pm 30.0 28.4 16.0 42 8.7 ENE 19 24 10 13 1012.7 - 0.0
23/01:30pm 30.3 28.7 16.0 42 8.9 ENE 19 26 10 14 1012.9 - 0.0
23/01:00pm 30.4 29.1 16.7 43 8.6 NE 19 28 10 15 1013.4 - 0.0
23/12:30pm 30.6 28.7 15.2 39 9.5 ENE 19 28 10 15 1013.8 - 0.0
23/12:00pm 30.9 28.8 15.2 38 9.7 NE 20 26 11 14 1014.1 1013.8 0.0
23/11:30am 29.5 28.6 16.8 46 8.0 ENE 17 26 9 14 1014.6 - 0.0
23/11:00am 28.9 28.8 19.5 57 6.1 ENE 19 24 10 13 1014.9 - 0.0
23/10:30am 29.0 27.9 18.6 53 6.7 NE 22 26 12 14 1015.2 - 0.0
23/10:00am 28.8 28.1 18.2 52 6.8 E 19 28 10 15 1015.3 - 0.0
23/09:30am 27.7 28.0 20.7 65 4.6 NE 20 28 11 15 1015.4 - 0.0
23/09:00am 27.4 27.4 20.1 64 4.8 E 20 28 11 15 1015.4 1015.2 0.0
23/08:30am 27.0 27.1 20.3 66 4.4 E 20 26 11 14 1015.3 - 0.0
23/08:00am 26.2 28.0 21.1 73 3.4 E 13 17 7 9 1014.9 - 0.0
23/07:25am 23.6 26.4 20.4 82 2.1 E 6 11 3 6 1014.5 - 0.0
23/07:00am 18.6 21.2 17.5 93 0.7 CALM 0 0 0 0 1014.4 - 0.0
23/06:52am 18.3 20.8 17.3 94 0.6 CALM 0 0 0 0 1014.2 - 0.0
23/06:30am 17.9 20.3 16.9 94 0.6 CALM 0 0 0 0 1013.8 - 0.0
23/06:24am 17.9 20.3 16.9 94 0.6 SE 0 0 0 0 1013.7 - 0.0
23/06:00am 18.3 19.5 17.3 94 0.6 NE 7 7 4 4 1013.3 1013.0 0.0
23/05:30am 19.3 21.0 18.5 95 0.5 SE 7 9 4 5 1013.0 - 0.0
23/05:00am 19.2 20.8 18.2 94 0.6 E 7 9 4 5 1012.7 - 0.0
23/04:30am 19.1 20.6 18.0 93 0.7 ESE 7 9 4 5 1012.6 - 0.0
23/04:00am 19.4 21.2 18.3 93 0.7 E 6 7 3 4 1012.6 - 0.0
23/03:30am 19.5 21.1 18.2 92 0.8 ESE 7 9 4 5 1012.4 - 0.0
23/03:00am 19.9 21.2 18.5 92 0.9 ESE 9 9 5 5 1012.3 1012.0 0.0
23/02:30am 19.5 21.1 17.9 90 1.0 E 6 6 3 3 1012.6 - 0.0
23/02:00am 20.0 22.9 18.2 89 1.1 CALM 0 0 0 0 1012.9 - 0.0
23/01:30am 19.8 21.7 18.5 92 0.8 S 6 7 3 4 1013.1 - 0.0
23/01:00am 20.1 22.8 18.7 92 0.9 E 2 6 1 3 1013.3 - 0.0
23/12:30am 21.0 23.0 19.1 89 1.2 E 7 7 4 4 1013.6 - 0.0
23/12:00am 21.4 23.7 19.8 91 1.0 ESE 7 7 4 4 1013.7 1013.4 0.0
 
Date/Time
CST
Temp
°C
App
Temp
°C
Dew
Point
Rel
Hum
%
Delta-T
°C
Wind Press
QNH
hPa
Press
MSL
hPa
Rain
since 9 am
mm
Dir
 
Spd
km/h
Gust
km/h
Spd
kts
Gust
kts
22/11:30pm 20.7 24.0 19.1 90 1.0 CALM 0 0 0 0 1014.0 - 0.0
22/11:00pm 20.7 24.0 19.1 90 1.0 CALM 0 0 0 0 1014.1 - 0.0
22/10:30pm 20.9 23.9 19.3 90 1.0 E 2 6 1 3 1014.1 - 0.0
22/10:00pm 21.4 23.7 19.4 88 1.3 ESE 6 7 3 4 1014.2 - 0.0
22/09:30pm 21.2 23.4 19.1 88 1.3 SE 6 7 3 4 1014.1 - 0.0
22/09:00pm 21.7 23.9 19.5 87 1.4 SE 7 7 4 4 1013.7 1013.4 0.0
22/08:30pm 21.8 23.9 19.3 86 1.6 SE 7 9 4 5 1013.5 - 0.0
22/08:00pm 22.4 24.6 19.6 84 1.8 SE 7 9 4 5 1013.1 - 0.0
22/07:30pm 23.1 25.3 19.7 81 2.2 SE 7 9 4 5 1012.9 - 0.0
22/07:00pm 23.8 25.6 19.6 77 2.7 SE 9 11 5 6 1012.6 - 0.0
22/06:30pm 24.8 26.6 19.5 72 3.4 SE 9 15 5 8 1012.4 - 0.0
22/06:00pm 26.0 26.4 19.0 65 4.5 SE 15 20 8 11 1012.0 1011.7 0.0
22/05:30pm 26.8 27.0 18.5 60 5.3 SE 15 22 8 12 1011.8 - 0.0
22/05:00pm 27.7 27.0 17.4 53 6.5 SSE 17 24 9 13 1011.8 - 0.0
22/04:30pm 28.4 27.7 18.2 54 6.5 SE 19 26 10 14 1011.6 - 0.0
22/04:00pm 28.5 27.4 17.8 52 6.8 SE 20 28 11 15 1011.7 - 0.0
22/03:30pm 28.3 28.2 18.8 56 6.1 SE 17 24 9 13 1011.5 - 0.0
22/03:00pm 29.0 28.2 18.0 51 7.0 S 19 22 10 12 1011.6 1011.3 0.0
22/02:30pm 28.9 28.8 18.7 54 6.6 SE 17 28 9 15 1011.8 - 0.0
22/02:00pm 29.0 28.2 18.4 52 6.8 SE 20 30 11 16 1012.2 - 0.0
22/01:30pm 29.4 28.8 18.9 53 6.8 SE 20 32 11 17 1012.6 - 0.0
22/01:00pm 30.4 29.9 19.0 50 7.4 E 20 30 11 16 1013.0 - 0.0
22/12:30pm 30.4 30.5 18.3 48 7.8 E 15 26 8 14 1013.6 - 0.0
22/12:00pm 29.1 29.5 18.9 54 6.6 E 15 24 8 13 1014.3 1014.0 0.0
22/11:30am 28.5 28.7 18.5 54 6.4 E 15 22 8 12 1014.7 - 0.0
22/11:00am 28.9 28.8 18.8 54 6.5 ENE 17 28 9 15 1015.2 - 0.0
22/10:30am 28.3 27.4 18.3 54 6.4 ENE 20 26 11 14 1015.8 - 0.0
22/10:00am 28.0 27.5 18.7 57 6.0 E 19 26 10 14 1016.2 - 0.0
22/09:30am 27.5 28.3 19.8 63 5.0 E 15 22 8 12 1016.5 - 0.0
22/09:00am 26.4 26.7 19.6 66 4.4 E 17 24 9 13 1016.6 1016.4 0.0
22/08:30am 26.0 27.2 20.0 69 3.9 ENE 13 22 7 12 1016.3 - 0.0
22/08:00am 25.6 27.4 20.4 73 3.4 E 11 15 6 8 1015.9 - 0.0
22/07:30am 23.5 26.0 20.3 82 2.1 ENE 7 48 4 26 1015.6 - 0.0
22/07:00am 20.3 23.5 18.9 92 0.9 CALM 0 0 0 0 1015.1 - 0.0
22/06:54am 19.6 22.5 18.3 92 0.8 CALM 0 0 0 0 1015.1 - 0.0
22/06:30am 18.4 20.9 17.2 93 0.7 CALM 0 0 0 0 1014.5 - 0.0
22/06:00am 18.0 20.3 16.8 93 0.7 CALM 0 0 0 0 1014.0 1013.7 0.0
22/05:30am 18.0 20.3 16.8 93 0.7 CALM 0 0 0 0 1013.7 - 0.0
22/05:00am 17.9 20.1 16.6 92 0.8 CALM 0 0 0 0 1013.4 - 0.0
22/04:30am 18.1 20.4 16.8 92 0.8 CALM 0 0 0 0 1013.3 - 0.0
22/04:00am 18.3 20.7 17.0 92 0.8 CALM 0 0 0 0 1013.1 - 0.0
22/03:30am 18.2 20.6 16.9 92 0.8 CALM 0 0 0 0 1013.2 - 0.0
22/03:00am 18.2 20.6 16.9 92 0.8 CALM 0 0 0 0 1013.3 1013.0 0.0
22/02:30am 18.5 20.9 17.0 91 0.9 CALM 0 0 0 0 1013.5 - 0.0
22/02:00am 19.0 21.6 17.4 90 1.0 CALM 0 0 0 0 1013.8 - 0.0
22/01:30am 19.1 21.8 17.8 92 0.8 CALM 0 0 0 0 1013.9 - 0.0
22/01:00am 19.3 22.0 17.8 91 0.9 CALM 0 0 0 0 1014.2 - 0.0
22/12:30am 19.2 20.6 17.4 89 1.1 SSE 6 7 3 4 1014.3 - 0.0
22/12:00am 20.1 22.0 19.0 93 0.7 SSE 7 9 4 5 1014.5 1014.2 0.0
 
Date/Time
CST
Temp
°C
App
Temp
°C
Dew
Point
Rel
Hum
%
Delta-T
°C
Wind Press
QNH
hPa
Press
MSL
hPa
Rain
since 9 am
mm
Dir
 
Spd
km/h
Gust
km/h
Spd
kts
Gust
kts
21/11:30pm 19.9 21.8 18.5 92 0.9 SE 6 7 3 4 1014.7 - 0.0
21/11:00pm 20.2 22.2 18.8 92 0.9 SE 6 7 3 4 1014.9 - 0.0
21/10:30pm 20.2 22.2 18.8 92 0.9 NE 6 7 3 4 1014.9 - 0.0
21/10:00pm 20.7 22.6 18.6 88 1.3 E 6 7 3 4 1015.0 - 0.0
21/09:30pm 21.3 23.5 19.2 88 1.3 ESE 6 7 3 4 1015.0 - 0.0
21/09:00pm 21.5 23.9 19.6 89 1.2 ESE 6 9 3 5 1014.8 1014.6 0.0
21/08:30pm 22.4 24.7 19.9 86 1.6 ESE 7 9 4 5 1014.8 - 0.0
21/08:00pm 23.0 25.4 20.1 84 1.9 SE 7 9 4 5 1014.4 - 0.0
21/07:30pm 23.8 26.3 20.3 81 2.3 SE 7 13 4 7 1014.3 - 0.0
21/07:00pm 24.6 26.7 20.1 76 2.9 SE 9 13 5 7 1013.9 - 0.0
21/06:30pm 25.2 26.9 20.1 73 3.3 SSE 11 17 6 9 1013.5 - 0.0
21/06:00pm 26.0 26.8 19.8 68 4.0 SE 15 22 8 12 1013.1 1012.8 0.0
21/05:30pm 27.3 26.7 18.9 60 5.4 SE 20 28 11 15 1013.0 - 0.0
21/05:00pm 28.0 27.7 18.3 55 6.2 SE 17 24 9 13 1012.9 - 0.0
21/04:30pm 28.6 27.7 18.3 53 6.6 SE 20 26 11 14 1012.7 - 0.0
21/04:00pm 28.5 26.8 18.0 53 6.7 SSE 24 28 13 15 1012.5 - 0.0
21/03:30pm 29.3 27.6 17.3 48 7.6 ESE 22 32 12 17 1012.5 - 0.0
21/03:00pm 29.8 27.8 17.3 47 7.9 ESE 24 35 13 19 1012.7 1012.4 0.0
21/02:30pm 29.2 27.3 16.8 47 7.8 ESE 22 26 12 14 1012.7 - 0.0
21/02:00pm 30.3 28.6 16.2 42 8.8 ENE 20 30 11 16 1012.9 - 0.0
21/01:30pm 29.9 28.7 17.1 46 8.1 NE 19 28 10 15 1012.9 - 0.0
21/01:00pm 30.9 29.3 16.6 42 9.0 NE 20 26 11 14 1013.4 - 0.0
21/12:30pm 30.5 29.4 15.4 40 9.3 ENE 15 22 8 12 1013.8 - 0.0
21/12:00pm 30.0 27.9 14.8 39 9.3 ENE 19 28 10 15 1014.4 1014.1 0.0
21/11:30am 29.1 26.9 15.0 42 8.6 ENE 20 32 11 17 1015.0 - 0.0
21/11:00am 29.5 27.7 16.0 44 8.4 NE 20 24 11 13 1015.4 - 0.0
21/10:30am 29.0 26.4 13.8 39 9.1 NE 20 28 11 15 1015.6 - 0.0
21/10:00am 28.7 25.7 13.8 40 8.9 NE 22 30 12 16 1015.8 - 0.0
21/09:30am 28.9 27.5 15.6 44 8.2 ENE 17 22 9 12 1015.7 - 0.0
21/09:00am 27.8 27.3 16.9 51 6.8 E 15 20 8 11 1015.7 1015.5 0.0
21/08:30am 26.0 28.2 21.2 75 3.2 E 11 13 6 7 1015.7 - 0.0
21/08:00am 24.7 27.1 20.9 79 2.5 ESE 9 11 5 6 1015.3 - 0.0
21/07:30am 23.5 26.7 20.4 83 2.0 E 4 7 2 4 1015.1 - 0.0
21/07:00am 20.3 23.5 18.9 92 0.9 CALM 0 0 0 0 1014.4 - 0.0
21/06:52am 18.6 21.1 17.3 92 0.8 CALM 0 0 0 0 1014.4 - 0.0
21/06:30am 18.0 20.2 16.5 91 0.9 CALM 0 0 0 0 1014.1 - 0.0
21/06:26am - - - - - - - - - - - - -
21/06:00am 18.1 20.4 16.8 92 0.8 CALM 0 0 0 0 1013.8 1013.5 0.0
21/05:30am 17.9 20.1 16.4 91 0.9 CALM 0 0 0 0 1013.4 1013.7 0.0
21/05:00am 18.7 21.1 17.1 90 1.0 CALM 0 0 0 0 1012.9 - 0.0
21/04:30am 18.3 20.5 16.5 89 1.1 CALM 0 0 0 0 1012.6 - 0.0
21/04:00am 18.4 20.7 16.7 90 1.0 CALM 0 0 0 0 1012.4 - 0.0
21/03:30am 18.7 21.3 17.6 93 0.7 CALM 0 0 0 0 1012.3 - 0.0
21/03:00am 19.1 21.7 17.6 91 0.9 CALM 0 0 0 0 1012.3 1012.0 0.0
21/02:30am 19.3 22.0 17.7 90 1.0 CALM 0 0 0 0 1012.3 - 0.0
21/02:00am 19.1 21.7 17.5 90 1.0 CALM 0 0 0 0 1012.4 - 0.0
21/01:30am 19.0 21.4 17.0 88 1.2 CALM 0 0 0 0 1012.8 - 0.0
21/01:00am 19.3 21.8 17.3 88 1.2 CALM 0 0 0 0 1013.3 - 0.0
21/12:30am 19.5 21.0 17.7 89 1.1 S 6 9 3 5 1013.7 - 0.0
21/12:00am 19.8 21.5 18.0 89 1.1 SSE 6 7 3 4 1014.0 1013.7 0.0
 
Date/Time
CST
Temp
°C
App
Temp
°C
Dew
Point
Rel
Hum
%
Delta-T
°C
Wind Press
QNH
hPa
Press
MSL
hPa
Rain
since 9 am
mm
Dir
 
Spd
km/h
Gust
km/h
Spd
kts
Gust
kts
20/11:30pm 20.4 23.3 18.3 88 1.3 CALM 0 0 0 0 1014.2 - 0.0
20/11:00pm 20.3 23.3 18.5 89 1.1 CALM 0 0 0 0 1014.3 - 0.0
20/10:30pm 20.3 23.3 18.4 89 1.2 CALM 0 0 0 0 1014.3 - 0.0
20/10:00pm 20.7 23.6 18.3 86 1.5 CALM 0 0 0 0 1014.3 - 0.0
20/09:30pm 21.0 23.9 18.1 83 1.8 CALM 0 0 0 0 1014.4 - 0.0
20/09:00pm 22.0 24.0 18.7 81 2.1 SE 6 7 3 4 1014.2 1013.9 0.0
20/08:30pm 22.4 24.3 18.6 79 2.4 SSE 6 7 3 4 1014.1 - 0.0
20/08:00pm 22.4 24.1 18.4 78 2.5 SSE 7 9 4 5 1013.9 - 0.0
20/07:30pm 22.5 23.9 17.8 75 2.9 NNE 7 7 4 4 1013.5 - 0.0
20/07:00pm 23.3 24.5 17.3 69 3.7 ESE 7 9 4 5 1013.1 - 0.0
20/06:30pm 25.0 25.6 16.7 60 5.1 ENE 9 13 5 7 1012.8 - 0.0
20/06:00pm 26.8 26.4 16.1 52 6.6 E 13 17 7 9 1012.6 1012.3 0.0

Other Formats:

Comma delimited format used in spreadsheet applications
http://www.bom.gov.au/fwo/IDD60801/IDD60801.94150.axf

JavaScript Object Notation format (JSON) in row-major order
http://www.bom.gov.au/fwo/IDD60801/IDD60801.94150.json